createdAt,value
2023-02-06T00:01:50.950Z,6.54
2023-02-06T00:04:19.874Z,6.62
2023-02-06T00:06:47.313Z,6.66
2023-02-06T00:09:14.747Z,6.61
2023-02-06T00:11:42.224Z,6.47
2023-02-06T00:14:09.500Z,6.61
2023-02-06T00:16:36.871Z,6.87
2023-02-06T00:19:04.547Z,6.53
2023-02-06T00:21:32.238Z,6.43
2023-02-06T00:24:01.902Z,6.67
2023-02-06T00:26:31.512Z,6.02
2023-02-06T00:28:59.040Z,5.93
2023-02-06T00:31:26.420Z,5.21
2023-02-06T00:33:53.635Z,5.47
2023-02-06T00:36:20.906Z,5.53
2023-02-06T00:38:48.463Z,5.90
2023-02-06T00:41:16.097Z,5.63
2023-02-06T00:43:44.156Z,5.84
2023-02-06T00:46:12.045Z,6.23
2023-02-06T00:48:39.605Z,6.42
2023-02-06T00:51:10.877Z,6.44
2023-02-06T00:53:39.064Z,6.76
2023-02-06T00:56:06.768Z,6.51
2023-02-06T00:58:34.131Z,7.05
2023-02-06T01:01:01.367Z,6.61
2023-02-06T01:03:28.645Z,6.64
2023-02-06T01:05:56.116Z,6.85
2023-02-06T01:08:23.776Z,6.96
2023-02-06T01:10:51.942Z,7.05
2023-02-06T01:13:19.352Z,7.14
2023-02-06T01:15:46.754Z,7.09
2023-02-06T01:18:14.447Z,7.15
2023-02-06T01:20:42.241Z,7.29
2023-02-06T01:23:10.473Z,7.31
2023-02-06T01:25:38.274Z,7.30
2023-02-06T01:28:05.732Z,7.18
2023-02-06T01:30:33.059Z,7.11
2023-02-06T01:33:00.337Z,7.21
2023-02-06T01:35:29.567Z,7.04
2023-02-06T01:37:57.094Z,6.85
2023-02-06T01:40:24.482Z,6.98
2023-02-06T01:42:51.811Z,7.22
2023-02-06T01:45:41.190Z,7.28
2023-02-06T01:48:17.955Z,7.29
2023-02-06T01:50:54.442Z,7.52
2023-02-06T01:53:24.180Z,7.26
2023-02-06T01:55:55.380Z,7.24
2023-02-06T01:58:38.671Z,7.31
2023-02-06T02:01:07.628Z,7.28
2023-02-06T02:03:41.019Z,7.20
2023-02-06T02:06:14.631Z,7.09
2023-02-06T02:08:46.574Z,7.05
2023-02-06T02:11:31.113Z,7.23
2023-02-06T02:14:02.531Z,7.32
2023-02-06T02:17:05.710Z,7.47
2023-02-06T02:19:57.748Z,7.50
2023-02-06T02:22:50.145Z,7.44
2023-02-06T02:26:00.351Z,7.55
2023-02-06T02:29:04.444Z,7.28
2023-02-06T02:32:15.936Z,7.45
2023-02-06T02:35:12.457Z,7.48
2023-02-06T02:38:25.747Z,7.31
2023-02-06T02:41:47.496Z,7.08
2023-02-06T02:44:43.466Z,7.12
2023-02-06T02:47:17.393Z,7.08
2023-02-06T02:49:46.700Z,6.98
2023-02-06T02:52:14.594Z,7.23
2023-02-06T02:54:42.100Z,7.00
2023-02-06T02:57:22.635Z,7.04
2023-02-06T02:59:51.905Z,6.92
2023-02-06T03:02:30.193Z,7.16
2023-02-06T03:05:14.031Z,7.04
2023-02-06T03:08:46.750Z,6.73
2023-02-06T03:11:18.759Z,6.99
2023-02-06T03:14:29.078Z,6.93
2023-02-06T03:17:09.950Z,7.04
2023-02-06T03:19:52.989Z,7.04
2023-02-06T03:22:24.661Z,6.77
2023-02-06T03:24:56.767Z,6.82
2023-02-06T03:27:28.530Z,6.90
2023-02-06T03:29:59.172Z,6.83
2023-02-06T03:32:34.614Z,6.89
2023-02-06T03:35:21.645Z,7.07
2023-02-06T03:38:15.073Z,7.01
2023-02-06T03:40:47.894Z,7.07
2023-02-06T03:43:18.894Z,7.10
2023-02-06T03:45:56.963Z,7.13
2023-02-06T03:48:37.091Z,6.95
2023-02-06T03:51:16.050Z,6.87
2023-02-06T03:53:46.260Z,6.84
2023-02-06T03:56:26.672Z,6.70
2023-02-06T03:58:54.024Z,6.28
2023-02-06T04:01:23.062Z,6.28
2023-02-06T04:03:50.447Z,6.47
2023-02-06T04:06:18.253Z,6.04
2023-02-06T04:08:45.716Z,6.24
2023-02-06T04:11:13.052Z,6.18
2023-02-06T04:13:40.497Z,6.31
2023-02-06T04:16:07.695Z,6.43
2023-02-06T04:18:34.891Z,6.51
2023-02-06T04:21:07.667Z,6.70
2023-02-06T04:23:35.240Z,6.77
2023-02-06T04:26:02.543Z,6.83
2023-02-06T04:28:29.971Z,7.01
2023-02-06T04:30:57.284Z,6.71
2023-02-06T04:33:24.715Z,6.81
2023-02-06T04:35:51.918Z,6.68
2023-02-06T04:38:19.375Z,6.80
2023-02-06T04:40:47.060Z,6.27
2023-02-06T04:43:14.281Z,5.99
2023-02-06T04:45:41.994Z,6.27
2023-02-06T04:48:09.354Z,6.49
2023-02-06T04:50:37.210Z,6.57
2023-02-06T04:53:04.664Z,6.81
2023-02-06T04:55:32.077Z,6.63
2023-02-06T04:57:59.249Z,6.69
2023-02-06T05:00:26.742Z,6.86
2023-02-06T05:02:53.911Z,6.59
2023-02-06T05:05:21.276Z,6.51
2023-02-06T05:07:48.701Z,6.53
2023-02-06T05:10:16.154Z,6.37
2023-02-06T05:12:43.695Z,5.84
2023-02-06T05:15:11.009Z,5.75
2023-02-06T05:17:38.715Z,5.46
2023-02-06T05:20:07.111Z,5.30
2023-02-06T05:22:34.776Z,5.12
2023-02-06T05:25:02.631Z,5.07
2023-02-06T05:27:29.978Z,4.58
2023-02-06T05:29:57.173Z,4.94
2023-02-06T05:32:24.628Z,4.67
2023-02-06T05:34:51.879Z,4.60
2023-02-06T05:37:19.248Z,4.93
2023-02-06T05:39:46.540Z,5.13
2023-02-06T05:42:13.883Z,4.92
2023-02-06T05:44:41.195Z,5.33
2023-02-06T05:47:08.591Z,4.81
2023-02-06T05:49:35.829Z,5.13
2023-02-06T05:52:03.380Z,5.79
2023-02-06T05:54:30.798Z,5.58
2023-02-06T05:56:58.196Z,6.02
2023-02-06T05:59:25.478Z,5.95
2023-02-06T06:01:52.825Z,5.93
2023-02-06T06:04:20.518Z,6.06
2023-02-06T06:06:47.789Z,6.23
2023-02-06T06:09:15.117Z,6.26
2023-02-06T06:11:42.305Z,6.36
2023-02-06T06:14:12.073Z,6.32
2023-02-06T06:16:40.714Z,6.37
2023-02-06T06:19:08.215Z,6.53
2023-02-06T06:21:36.165Z,6.53
2023-02-06T06:24:03.875Z,6.37
2023-02-06T06:26:31.232Z,6.48
2023-02-06T06:28:58.405Z,6.43
2023-02-06T06:31:25.634Z,6.48
2023-02-06T06:33:54.334Z,6.49
2023-02-06T06:36:22.108Z,6.65
2023-02-06T06:38:49.399Z,6.53
2023-02-06T06:41:16.507Z,6.79
2023-02-06T06:43:44.199Z,7.05
2023-02-06T06:46:21.214Z,6.90
2023-02-06T06:48:49.216Z,6.67
2023-02-06T06:51:16.580Z,6.55
2023-02-06T06:53:44.130Z,6.59
2023-02-06T06:56:15.066Z,6.74
2023-02-06T06:58:42.759Z,6.69
2023-02-06T07:01:15.417Z,6.69
2023-02-06T07:03:47.056Z,6.24
2023-02-06T07:06:16.090Z,6.31
2023-02-06T07:08:43.743Z,6.53
2023-02-06T07:11:16.123Z,6.72
2023-02-06T07:13:44.586Z,6.64
2023-02-06T07:16:12.888Z,6.86
2023-02-06T07:18:50.107Z,6.77
2023-02-06T07:21:21.791Z,6.94
2023-02-06T07:23:49.088Z,7.09
2023-02-06T07:26:17.417Z,7.20
2023-02-06T07:28:44.659Z,7.47
2023-02-06T07:31:11.850Z,7.45
2023-02-06T07:33:39.048Z,7.41
2023-02-06T07:36:11.717Z,7.03
2023-02-06T07:38:39.616Z,7.14
2023-02-06T07:41:07.659Z,7.26
2023-02-06T07:43:43.444Z,7.42
2023-02-06T07:46:20.668Z,7.46
2023-02-06T07:48:55.207Z,7.42
2023-02-06T07:51:22.972Z,7.55
2023-02-06T07:53:50.350Z,7.67
2023-02-06T07:56:23.264Z,7.68
2023-02-06T07:58:54.499Z,7.75
2023-02-06T08:01:23.598Z,7.72
2023-02-06T08:03:53.945Z,7.23
2023-02-06T08:06:25.225Z,7.29
2023-02-06T08:09:00.302Z,7.51
2023-02-06T08:11:30.238Z,7.63
2023-02-06T08:13:58.488Z,7.82
2023-02-06T08:16:27.027Z,8.01
2023-02-06T08:18:54.372Z,7.98
2023-02-06T08:21:25.320Z,7.82
2023-02-06T08:23:59.120Z,7.91
2023-02-06T08:26:29.482Z,7.83
2023-02-06T08:29:02.842Z,6.72
2023-02-06T08:31:38.662Z,7.17
2023-02-06T08:34:10.470Z,7.50
2023-02-06T08:36:43.142Z,7.15
2023-02-06T08:39:14.778Z,7.32
2023-02-06T08:41:44.460Z,7.35
2023-02-06T08:44:17.177Z,7.12
2023-02-06T08:46:47.671Z,6.56
2023-02-06T08:49:22.787Z,6.60
2023-02-06T08:51:50.330Z,6.08
2023-02-06T08:54:22.598Z,6.00
2023-02-06T08:56:52.702Z,6.15
2023-02-06T08:59:21.046Z,6.61
2023-02-06T09:01:49.429Z,6.62
2023-02-06T09:04:17.726Z,6.41
2023-02-06T09:06:50.309Z,6.34
2023-02-06T09:09:18.683Z,6.13
2023-02-06T09:11:46.059Z,6.02
2023-02-06T09:14:17.850Z,5.62
2023-02-06T09:16:45.401Z,5.70
2023-02-06T09:19:13.882Z,5.49
2023-02-06T09:21:41.920Z,5.15
2023-02-06T09:24:10.011Z,4.98
2023-02-06T09:26:58.077Z,5.00
2023-02-06T09:29:29.293Z,5.15
2023-02-06T09:31:57.519Z,5.27
2023-02-06T09:34:26.984Z,5.54
2023-02-06T09:36:55.136Z,5.38
2023-02-06T09:39:22.936Z,5.31
2023-02-06T09:42:16.976Z,5.16
2023-02-06T09:44:55.053Z,5.58
2023-02-06T09:47:32.398Z,5.28
2023-02-06T09:50:59.177Z,5.30
2023-02-06T09:53:44.024Z,5.76
2023-02-06T09:56:55.425Z,5.51
2023-02-06T10:00:04.393Z,5.50
2023-02-06T10:03:14.442Z,5.43
2023-02-06T10:06:28.849Z,4.93
2023-02-06T10:09:18.745Z,5.12
2023-02-06T10:11:58.870Z,5.37
2023-02-06T10:15:07.535Z,5.63
2023-02-06T10:18:01.847Z,6.27
2023-02-06T10:20:37.875Z,6.74
2023-02-06T10:23:41.855Z,6.39
2023-02-06T10:26:19.850Z,6.37
2023-02-06T10:28:57.070Z,6.85
2023-02-06T10:31:34.647Z,6.70
2023-02-06T10:34:48.188Z,7.31
2023-02-06T10:38:12.185Z,7.92
2023-02-06T10:41:03.648Z,7.08
2023-02-06T10:44:20.414Z,7.01
2023-02-06T10:46:55.569Z,6.55
2023-02-06T10:49:48.637Z,6.33
2023-02-06T10:52:34.931Z,6.58
2023-02-06T10:55:46.051Z,7.18
2023-02-06T10:58:22.291Z,7.07
2023-02-06T11:00:51.741Z,6.62
2023-02-06T11:03:31.869Z,6.73
2023-02-06T11:06:02.508Z,7.55
2023-02-06T11:08:41.842Z,7.68
2023-02-06T11:11:35.705Z,6.64
2023-02-06T11:14:35.102Z,6.48
2023-02-06T11:17:05.641Z,6.01
2023-02-06T11:19:42.654Z,6.30
2023-02-06T11:22:28.195Z,6.91
2023-02-06T11:25:30.420Z,7.09
2023-02-06T11:28:01.192Z,6.88
2023-02-06T11:30:40.965Z,7.17
2023-02-06T11:33:49.872Z,6.24
2023-02-06T11:36:38.779Z,7.67
2023-02-06T11:39:26.139Z,7.68
2023-02-06T11:42:28.407Z,8.27
2023-02-06T11:44:55.795Z,7.96
2023-02-06T11:47:38.089Z,7.26
2023-02-06T11:50:35.592Z,7.17
2023-02-06T11:53:18.915Z,7.77
2023-02-06T11:56:16.051Z,8.38
2023-02-06T11:58:49.258Z,8.76
2023-02-06T12:01:22.560Z,9.17
2023-02-06T12:03:59.394Z,9.29
2023-02-06T12:06:36.424Z,9.71
2023-02-06T12:09:12.278Z,9.95
2023-02-06T12:12:07.097Z,9.17
2023-02-06T12:14:59.148Z,9.22
2023-02-06T12:17:41.716Z,8.42
2023-02-06T12:20:21.251Z,8.79
2023-02-06T12:23:06.267Z,9.27
2023-02-06T12:25:43.250Z,9.13
2023-02-06T12:28:53.110Z,9.31
2023-02-06T12:31:50.415Z,8.97
2023-02-06T12:34:28.766Z,9.11
2023-02-06T12:37:26.395Z,8.99
2023-02-06T12:39:54.016Z,7.48
2023-02-06T12:42:47.970Z,6.26
2023-02-06T12:45:35.652Z,6.86
2023-02-06T12:48:21.713Z,6.70
2023-02-06T12:51:15.269Z,6.55
2023-02-06T12:54:05.079Z,6.70
2023-02-06T12:56:50.879Z,5.98
2023-02-06T12:59:58.616Z,5.76
2023-02-06T13:03:14.551Z,6.61
2023-02-06T13:05:54.952Z,6.63
2023-02-06T13:08:35.520Z,6.53
2023-02-06T13:11:25.937Z,6.56
2023-02-06T13:14:27.961Z,7.20
2023-02-06T13:17:10.348Z,7.19
2023-02-06T13:19:37.532Z,6.88
2023-02-06T13:22:14.230Z,7.29
2023-02-06T13:24:50.584Z,7.57
2023-02-06T13:27:40.278Z,7.24
2023-02-06T13:30:24.146Z,7.06
2023-02-06T13:32:53.362Z,7.31
2023-02-06T13:35:29.434Z,7.41
2023-02-06T13:38:35.637Z,7.84
2023-02-06T13:41:14.925Z,8.42
2023-02-06T13:43:59.941Z,7.38
2023-02-06T13:47:28.701Z,7.17
2023-02-06T13:51:11.300Z,6.31
2023-02-06T13:54:44.684Z,6.28
2023-02-06T13:58:04.356Z,7.18
2023-02-06T14:00:42.280Z,7.13
2023-02-06T14:03:24.682Z,6.73
2023-02-06T14:06:12.021Z,6.97
2023-02-06T14:09:19.024Z,7.57
2023-02-06T14:12:39.246Z,7.35
2023-02-06T14:15:21.366Z,7.33
2023-02-06T14:18:07.313Z,8.30
2023-02-06T14:21:06.392Z,8.09
2023-02-06T14:24:35.786Z,8.65
2023-02-06T14:28:07.130Z,8.65
2023-02-06T14:31:15.732Z,8.40
2023-02-06T14:34:17.625Z,8.41
2023-02-06T14:37:12.873Z,8.03
2023-02-06T14:39:47.317Z,8.33
2023-02-06T14:42:40.147Z,8.51
2023-02-06T14:45:33.806Z,7.77
2023-02-06T14:48:29.992Z,7.26
2023-02-06T14:50:58.474Z,6.79
2023-02-06T14:53:34.487Z,7.00
2023-02-06T14:56:25.763Z,7.14
2023-02-06T14:58:54.023Z,7.20
2023-02-06T15:01:27.718Z,6.43
2023-02-06T15:04:18.760Z,6.50
2023-02-06T15:07:03.350Z,7.14
2023-02-06T15:09:43.902Z,7.47
2023-02-06T15:12:26.519Z,7.57
2023-02-06T15:15:29.257Z,7.38
2023-02-06T15:18:17.984Z,7.09
2023-02-06T15:21:00.942Z,7.13
2023-02-06T15:23:46.294Z,6.93
2023-02-06T15:27:02.510Z,6.59
2023-02-06T15:29:30.247Z,6.45
2023-02-06T15:32:06.295Z,6.64
2023-02-06T15:34:34.544Z,6.60
2023-02-06T15:37:22.076Z,6.74
2023-02-06T15:39:50.680Z,6.81
2023-02-06T15:42:21.643Z,6.82
2023-02-06T15:44:51.239Z,7.10
2023-02-06T15:47:21.881Z,6.76
2023-02-06T15:49:51.799Z,6.37
2023-02-06T15:52:42.826Z,6.46
2023-02-06T15:55:34.915Z,6.71
2023-02-06T15:58:05.468Z,6.69
2023-02-06T16:00:37.679Z,6.66
2023-02-06T16:03:17.894Z,6.95
2023-02-06T16:05:46.657Z,7.15
2023-02-06T16:08:35.700Z,7.19
2023-02-06T16:11:30.936Z,7.00
2023-02-06T16:13:59.406Z,7.01
2023-02-06T16:16:28.666Z,6.90
2023-02-06T16:18:58.592Z,6.98
2023-02-06T16:21:39.778Z,6.97
2023-02-06T16:24:17.964Z,6.88
2023-02-06T16:26:52.516Z,6.92
2023-02-06T16:29:27.552Z,7.06
2023-02-06T16:32:16.555Z,6.96
2023-02-06T16:34:47.083Z,7.02
2023-02-06T16:37:20.236Z,6.84
2023-02-06T16:39:47.998Z,6.40
2023-02-06T16:42:25.811Z,6.16
2023-02-06T16:45:02.671Z,6.00
2023-02-06T16:47:30.079Z,6.38
2023-02-06T16:49:57.387Z,6.47
2023-02-06T16:52:31.935Z,6.40
2023-02-06T16:55:01.235Z,6.39
2023-02-06T16:57:47.066Z,6.27
2023-02-06T17:00:37.246Z,6.09
2023-02-06T17:03:05.853Z,6.40
2023-02-06T17:05:37.226Z,6.35
2023-02-06T17:08:16.182Z,6.49
2023-02-06T17:10:45.460Z,6.55
2023-02-06T17:13:23.040Z,6.58
2023-02-06T17:15:53.926Z,6.55
2023-02-06T17:18:23.458Z,6.49
2023-02-06T17:20:53.577Z,6.60
2023-02-06T17:23:21.112Z,6.50
2023-02-06T17:25:50.871Z,6.37
2023-02-06T17:28:20.756Z,6.41
2023-02-06T17:30:50.734Z,6.41
2023-02-06T17:33:18.512Z,6.27
2023-02-06T17:35:49.872Z,6.18
2023-02-06T17:38:17.177Z,5.84
2023-02-06T17:40:44.794Z,6.16
2023-02-06T17:43:12.368Z,6.28
2023-02-06T17:45:41.112Z,6.33
2023-02-06T17:48:09.641Z,6.38
2023-02-06T17:50:40.875Z,6.40
2023-02-06T17:53:14.176Z,6.00
2023-02-06T17:55:45.209Z,6.11
2023-02-06T17:58:13.448Z,5.65
2023-02-06T18:00:41.258Z,6.20
2023-02-06T18:03:09.600Z,6.50
2023-02-06T18:05:37.967Z,6.79
2023-02-06T18:08:05.345Z,6.53
2023-02-06T18:10:38.564Z,6.78
2023-02-06T18:13:06.049Z,6.15
2023-02-06T18:15:33.441Z,5.66
2023-02-06T18:18:00.857Z,5.65
2023-02-06T18:20:28.609Z,5.96
2023-02-06T18:22:55.825Z,5.76
2023-02-06T18:25:23.930Z,5.71
2023-02-06T18:27:51.512Z,5.85
2023-02-06T18:30:18.746Z,5.97
2023-02-06T18:32:46.501Z,5.83
2023-02-06T18:35:15.294Z,5.83
2023-02-06T18:37:43.697Z,5.62
2023-02-06T18:40:12.022Z,5.66
2023-02-06T18:42:56.877Z,5.91
2023-02-06T18:45:34.145Z,5.66
2023-02-06T18:48:11.789Z,6.01
2023-02-06T18:50:45.065Z,6.02
2023-02-06T18:53:16.816Z,5.78
2023-02-06T18:55:45.819Z,5.89
2023-02-06T18:58:18.688Z,5.66
2023-02-06T19:00:47.273Z,5.26
2023-02-06T19:03:26.359Z,4.66
2023-02-06T19:05:53.912Z,5.18
2023-02-06T19:08:27.188Z,5.60
2023-02-06T19:11:07.991Z,5.29
2023-02-06T19:13:40.806Z,4.97
2023-02-06T19:16:22.324Z,5.40
2023-02-06T19:18:54.560Z,5.45
2023-02-06T19:21:31.848Z,5.04
2023-02-06T19:24:30.214Z,4.93
2023-02-06T19:27:02.090Z,4.97
2023-02-06T19:29:35.506Z,4.86
2023-02-06T19:32:07.699Z,5.03
2023-02-06T19:34:40.229Z,5.11
2023-02-06T19:37:14.513Z,4.94
2023-02-06T19:39:44.975Z,5.00
2023-02-06T19:42:15.741Z,5.17
2023-02-06T19:44:45.084Z,5.06
2023-02-06T19:47:13.107Z,5.10
2023-02-06T19:49:40.708Z,5.40
2023-02-06T19:52:09.692Z,5.18
2023-02-06T19:54:37.593Z,4.84
2023-02-06T19:57:05.328Z,4.89
2023-02-06T19:59:33.181Z,5.55
2023-02-06T20:02:02.636Z,5.71
2023-02-06T20:04:35.610Z,5.59
2023-02-06T20:07:03.548Z,5.97
2023-02-06T20:09:31.909Z,6.18
2023-02-06T20:11:59.754Z,5.71
2023-02-06T20:14:27.957Z,5.28
2023-02-06T20:16:55.872Z,5.13
2023-02-06T20:19:31.044Z,5.41
2023-02-06T20:22:01.174Z,5.15
2023-02-06T20:24:32.494Z,5.06
2023-02-06T20:27:07.265Z,5.15
2023-02-06T20:29:42.507Z,4.93
2023-02-06T20:32:11.253Z,4.75
2023-02-06T20:34:39.260Z,4.21
2023-02-06T20:37:06.466Z,4.49
2023-02-06T20:39:34.628Z,3.93
2023-02-06T20:42:02.394Z,4.48
2023-02-06T20:44:30.951Z,4.72
2023-02-06T20:46:58.501Z,4.04
2023-02-06T20:49:28.892Z,3.88
2023-02-06T20:51:57.142Z,4.37
2023-02-06T20:54:25.894Z,4.15
2023-02-06T20:56:54.046Z,4.34
2023-02-06T20:59:22.281Z,4.26
2023-02-06T21:01:49.998Z,4.25
2023-02-06T21:04:19.664Z,3.88
2023-02-06T21:06:49.896Z,4.11
2023-02-06T21:09:19.300Z,3.60
2023-02-06T21:11:50.976Z,3.93
2023-02-06T21:14:19.819Z,4.56
2023-02-06T21:16:48.823Z,4.82
2023-02-06T21:19:20.562Z,4.58
2023-02-06T21:21:54.073Z,4.65
2023-02-06T21:24:21.809Z,4.36
2023-02-06T21:26:49.536Z,4.29
2023-02-06T21:29:17.020Z,4.19
2023-02-06T21:31:46.234Z,4.09
2023-02-06T21:34:22.244Z,4.27
2023-02-06T21:36:49.996Z,3.40
2023-02-06T21:39:27.699Z,3.63
2023-02-06T21:41:55.342Z,3.80
2023-02-06T21:44:25.304Z,3.58
2023-02-06T21:46:54.104Z,4.01
2023-02-06T21:49:23.458Z,3.82
2023-02-06T21:51:53.101Z,3.83
2023-02-06T21:54:20.665Z,4.55
2023-02-06T21:56:48.186Z,4.68
2023-02-06T21:59:15.612Z,4.49
2023-02-06T22:01:43.290Z,4.30
2023-02-06T22:04:12.657Z,4.09
2023-02-06T22:06:40.454Z,4.30
2023-02-06T22:09:15.251Z,4.37
2023-02-06T22:11:44.015Z,4.73
2023-02-06T22:14:16.427Z,4.32
2023-02-06T22:16:46.899Z,4.72
2023-02-06T22:19:16.399Z,5.22
2023-02-06T22:21:45.046Z,5.09
2023-02-06T22:24:13.302Z,4.56
2023-02-06T22:26:41.810Z,4.51
2023-02-06T22:29:16.105Z,4.41
2023-02-06T22:31:45.197Z,4.47
2023-02-06T22:34:19.874Z,4.69
2023-02-06T22:36:49.072Z,4.49
2023-02-06T22:39:17.092Z,4.45
2023-02-06T22:41:46.333Z,4.11
2023-02-06T22:44:16.697Z,4.15
2023-02-06T22:46:50.105Z,4.50
2023-02-06T22:49:20.175Z,4.41
2023-02-06T22:51:48.390Z,4.13
2023-02-06T22:54:15.997Z,4.23
2023-02-06T22:56:44.942Z,3.96
2023-02-06T22:59:24.268Z,4.32
2023-02-06T23:01:59.492Z,3.50
2023-02-06T23:04:36.333Z,3.63
2023-02-06T23:07:05.595Z,3.62
2023-02-06T23:09:38.462Z,3.29
2023-02-06T23:12:07.288Z,3.38
2023-02-06T23:14:35.005Z,3.54
2023-02-06T23:17:03.971Z,3.50
2023-02-06T23:19:32.056Z,3.36
2023-02-06T23:21:59.624Z,3.07
2023-02-06T23:24:27.241Z,3.38
2023-02-06T23:26:55.047Z,3.40
2023-02-06T23:29:23.965Z,3.66
2023-02-06T23:31:52.105Z,3.53
2023-02-06T23:34:23.640Z,3.43
2023-02-06T23:36:52.212Z,3.10
2023-02-06T23:39:19.925Z,3.07
2023-02-06T23:41:47.219Z,2.83
2023-02-06T23:44:14.831Z,2.69
2023-02-06T23:46:42.538Z,2.54
2023-02-06T23:49:11.401Z,2.54
2023-02-06T23:51:39.126Z,2.57
2023-02-06T23:54:08.852Z,2.76
2023-02-06T23:56:37.206Z,2.61
2023-02-06T23:59:06.864Z,2.55
